Time;durP1;ratioP1;P1;durP2;ratioP2;P2;SDS_P1;SDS_P2;PMS_P1;PMS_P2;Temp;Humidity;BMP_temperature;BMP_pressure;BME280_temperature;BME280_humidity;BME280_pressure;Samples;Min_cycle;Max_cycle;Signal;HPM_P1;HPM_P2
2024/01/29 00:00:19;;;;;;;56.13;24.60;;;7.50;99.90;;;;;;7381052;19;20003;-75
2024/01/29 00:02:49;;;;;;;52.33;24.98;;;7.50;99.90;;;;;;7389507;19;20004;-75
2024/01/29 00:05:18;;;;;;;56.67;24.83;;;7.50;99.90;;;;;;7390120;19;20058;-74
2024/01/29 00:07:47;;;;;;;64.28;28.63;;;7.50;99.90;;;;;;7409853;19;20011;-74
2024/01/29 00:10:16;;;;;;;67.43;28.00;;;7.50;99.90;;;;;;7381847;19;20015;-76
2024/01/29 00:12:45;;;;;;;58.10;26.60;;;7.50;99.90;;;;;;7383276;19;20006;-74
2024/01/29 00:15:16;;;;;;;51.78;24.42;;;7.50;99.90;;;;;;7381276;19;20082;-75
2024/01/29 00:17:47;;;;;;;53.35;23.98;;;7.50;99.90;;;;;;7380509;19;20007;-75
2024/01/29 00:20:19;;;;;;;44.08;23.40;;;7.50;99.90;;;;;;7380583;19;20027;-75
2024/01/29 00:22:50;;;;;;;39.92;21.05;;;7.40;99.90;;;;;;7399591;19;20015;-75
2024/01/29 00:25:20;;;;;;;40.17;19.75;;;7.40;99.90;;;;;;7379024;19;20003;-75
2024/01/29 00:27:49;;;;;;;41.78;20.25;;;7.40;99.90;;;;;;7377979;19;20031;-75
2024/01/29 00:30:18;;;;;;;40.90;21.08;;;7.40;99.90;;;;;;7379456;19;20062;-75
2024/01/29 00:32:49;;;;;;;44.13;20.38;;;7.40;99.90;;;;;;7379790;19;20024;-75
2024/01/29 00:35:17;;;;;;;40.00;19.75;;;7.40;99.90;;;;;;7380139;19;20006;-75
2024/01/29 00:37:46;;;;;;;45.80;20.45;;;7.40;99.90;;;;;;7400596;19;20022;-74
2024/01/29 00:40:15;;;;;;;48.85;19.63;;;7.40;99.90;;;;;;7378912;19;20066;-74
2024/01/29 00:42:44;;;;;;;39.08;19.83;;;7.40;99.90;;;;;;7379505;19;20329;-74
2024/01/29 00:45:13;;;;;;;39.55;18.80;;;7.40;99.90;;;;;;7380219;19;20179;-75
2024/01/29 00:47:41;;;;;;;33.13;17.45;;;7.30;99.90;;;;;;7379628;19;20020;-74
2024/01/29 00:50:13;;;;;;;30.27;16.63;;;7.30;99.90;;;;;;7378429;19;20010;-75
2024/01/29 00:52:41;;;;;;;;;;;7.30;99.90;;;;;;7401405;19;20015;-75
2024/01/29 00:55:10;;;;;;;34.13;15.35;;;7.40;99.90;;;;;;7378660;19;20205;-74
2024/01/29 00:57:39;;;;;;;30.17;16.02;;;7.30;99.90;;;;;;7379140;19;20401;-73
2024/01/29 01:00:10;;;;;;;33.65;17.00;;;7.30;99.90;;;;;;7378933;19;20006;-75
2024/01/29 01:02:39;;;;;;;37.15;16.90;;;7.30;99.90;;;;;;7379275;19;20287;-75
2024/01/29 01:05:09;;;;;;;40.38;17.70;;;7.30;99.90;;;;;;7378770;19;20021;-75
2024/01/29 01:07:40;;;;;;;38.65;17.38;;;7.30;99.90;;;;;;7399940;19;20020;-75
2024/01/29 01:10:10;;;;;;;40.13;18.70;;;7.30;99.90;;;;;;7376760;19;20058;-74
2024/01/29 01:12:41;;;;;;;45.78;22.20;;;7.30;99.90;;;;;;7378244;19;20036;-74
2024/01/29 01:15:10;;;;;;;48.67;21.25;;;7.30;99.90;;;;;;7378907;19;20007;-74
2024/01/29 01:17:38;;;;;;;39.63;19.80;;;7.30;99.90;;;;;;7378508;19;20070;-75
2024/01/29 01:20:08;;;;;;;40.08;19.42;;;7.30;99.90;;;;;;7377804;19;20028;-74
2024/01/29 01:22:40;;;;;;;37.80;18.33;;;7.30;99.90;;;;;;7399230;19;20358;-75
2024/01/29 01:25:11;;;;;;;;;;;7.20;99.90;;;;;;7378450;19;20003;-74
2024/01/29 01:27:40;;;;;;;33.90;16.17;;;7.30;99.90;;;;;;7378061;19;19936;-74
2024/01/29 01:30:10;;;;;;;36.65;16.98;;;7.20;99.90;;;;;;7376897;19;20329;-75
2024/01/29 01:32:38;;;;;;;34.85;17.17;;;7.20;99.90;;;;;;7377760;19;20010;-75
2024/01/29 01:35:08;;;;;;;33.25;16.35;;;7.20;99.90;;;;;;7377700;19;20062;-74
2024/01/29 01:37:41;;;;;;;36.50;17.48;;;7.20;99.90;;;;;;7401993;19;20011;-75
2024/01/29 01:40:11;;;;;;;33.35;17.85;;;7.20;99.90;;;;;;7385887;19;20010;-75
2024/01/29 01:42:43;;;;;;;33.33;17.20;;;7.20;99.90;;;;;;7385892;19;20006;-75
2024/01/29 01:45:12;;;;;;;31.52;16.05;;;7.20;99.90;;;;;;7386088;19;20003;-74
2024/01/29 01:47:42;;;;;;;34.40;18.58;;;7.20;99.90;;;;;;7385645;19;20003;-74
2024/01/29 01:50:12;;;;;;;35.38;18.20;;;7.20;99.90;;;;;;7384313;19;20010;-73
2024/01/29 01:52:43;;;;;;;42.00;19.33;;;7.20;99.90;;;;;;7407064;19;20007;-74
2024/01/29 01:55:12;;;;;;;;;;;7.20;99.90;;;;;;7384959;19;20397;-74
2024/01/29 01:57:42;;;;;;;38.72;17.35;;;7.20;99.90;;;;;;7385089;19;19970;-75
2024/01/29 02:00:13;;;;;;;28.77;15.53;;;7.20;99.90;;;;;;7385033;19;20013;-75
2024/01/29 02:02:43;;;;;;;29.88;15.13;;;7.20;99.90;;;;;;7384413;19;20240;-75
2024/01/29 02:05:11;;;;;;;29.02;16.23;;;7.10;99.90;;;;;;7383978;19;20425;-75
2024/01/29 02:07:43;;;;;;;33.40;16.73;;;7.10;99.90;;;;;;7405278;19;20078;-73
2024/01/29 02:10:12;;;;;;;30.63;16.02;;;7.10;99.90;;;;;;7383058;19;20006;-75
2024/01/29 02:12:41;;;;;;;30.20;16.13;;;7.10;99.90;;;;;;7384571;19;20097;-75
2024/01/29 02:15:10;;;;;;;26.00;14.43;;;7.10;99.90;;;;;;7384420;19;20073;-74
2024/01/29 02:17:39;;;;;;;34.50;16.35;;;7.10;99.90;;;;;;7381903;19;20110;-75
2024/01/29 02:20:09;;;;;;;30.15;15.48;;;7.10;99.90;;;;;;7383347;19;20406;-74
2024/01/29 02:22:45;;;;;;;28.27;15.77;;;7.10;99.90;;;;;;7405210;19;20479;-75
2024/01/29 02:25:15;;;;;;;37.75;17.08;;;7.10;99.90;;;;;;7383713;19;20237;-75
2024/01/29 02:27:44;;;;;;;40.60;17.63;;;7.10;99.90;;;;;;7386612;19;20013;-75
2024/01/29 02:30:14;;;;;;;40.20;20.10;;;7.10;99.90;;;;;;7383054;19;20014;-74
2024/01/29 02:32:43;;;;;;;35.40;18.63;;;7.10;99.90;;;;;;7384677;19;20082;-75
2024/01/29 02:35:12;;;;;;;33.22;18.52;;;7.10;99.90;;;;;;7388202;19;20006;-74
2024/01/29 02:37:43;;;;;;;37.65;19.13;;;7.10;99.90;;;;;;7405857;19;20007;-74
2024/01/29 02:40:16;;;;;;;38.17;17.55;;;7.10;99.90;;;;;;7383212;19;19999;-75
2024/01/29 02:42:44;;;;;;;36.85;16.08;;;7.10;99.90;;;;;;7383366;19;20024;-74
2024/01/29 02:45:13;;;;;;;31.80;15.95;;;7.10;99.90;;;;;;7383633;19;20007;-75
2024/01/29 02:47:42;;;;;;;35.92;15.57;;;7.10;99.90;;;;;;7383734;19;20007;-74
2024/01/29 02:50:12;;;;;;;35.67;16.77;;;7.10;99.90;;;;;;7382303;19;20066;-74
2024/01/29 02:52:40;;;;;;;30.55;16.30;;;7.00;99.90;;;;;;7404621;19;20014;-75
2024/01/29 02:55:12;;;;;;;36.22;17.20;;;7.10;99.90;;;;;;7388425;19;20414;-75
2024/01/29 02:57:41;;;;;;;30.92;16.40;;;7.00;99.90;;;;;;7392928;19;20015;-75
2024/01/29 03:00:10;;;;;;;31.20;15.95;;;7.00;99.90;;;;;;7393255;19;20393;-75
2024/01/29 03:02:39;;;;;;;35.10;15.07;;;7.00;99.90;;;;;;7393316;19;20027;-76
2024/01/29 03:05:09;;;;;;;31.80;15.32;;;7.00;99.90;;;;;;7414668;19;20011;-75
2024/01/29 03:07:38;;;;;;;35.28;16.00;;;7.00;99.90;;;;;;7391044;19;20011;-76
2024/01/29 03:10:09;;;;;;;35.85;16.85;;;7.00;99.90;;;;;;7388234;19;20002;-74
2024/01/29 03:12:40;;;;;;;31.00;15.73;;;7.00;99.90;;;;;;7381464;19;20087;-75
2024/01/29 03:15:09;;;;;;;31.83;15.05;;;7.00;99.90;;;;;;7382761;19;20007;-75
2024/01/29 03:17:38;;;;;;;35.95;14.98;;;7.00;99.90;;;;;;7382642;19;20304;-75
2024/01/29 03:20:08;;;;;;;32.75;15.10;;;7.00;99.90;;;;;;7404876;19;20228;-74
2024/01/29 03:22:36;;;;;;;32.47;13.30;;;7.00;99.90;;;;;;7381784;19;20023;-74
2024/01/29 03:25:07;;;;;;;21.40;11.60;;;7.00;99.90;;;;;;7381446;19;20009;-74
2024/01/29 03:27:35;;;;;;;28.10;11.50;;;6.90;99.90;;;;;;7382051;19;20041;-74
2024/01/29 03:30:08;;;;;;;24.02;12.75;;;6.90;99.90;;;;;;7382921;19;20385;-75
2024/01/29 03:32:40;;;;;;;29.88;13.05;;;6.90;99.90;;;;;;7381980;19;20087;-75
2024/01/29 03:35:10;;;;;;;27.90;13.15;;;6.90;99.90;;;;;;7403606;19;20014;-74
2024/01/29 03:37:39;;;;;;;27.92;12.57;;;7.00;99.90;;;;;;7380813;19;20018;-75
2024/01/29 03:40:10;;;;;;;19.38;12.13;;;7.00;99.90;;;;;;7381017;19;20010;-75
2024/01/29 03:42:39;;;;;;;;;;;7.00;99.90;;;;;;7381595;19;20031;-74
2024/01/29 03:45:11;;;;;;;24.48;12.15;;;7.00;99.90;;;;;;7381648;19;19942;-74
2024/01/29 03:47:40;;;;;;;25.23;12.20;;;7.00;99.90;;;;;;7381291;19;20011;-75
2024/01/29 03:50:10;;;;;;;24.95;11.38;;;7.00;99.90;;;;;;7402004;19;20476;-75
2024/01/29 03:52:39;;;;;;;21.95;10.40;;;7.00;99.90;;;;;;7380110;19;20021;-74
2024/01/29 03:55:09;;;;;;;29.02;11.80;;;7.00;99.90;;;;;;7380116;19;20285;-74
2024/01/29 03:57:38;;;;;;;16.55;9.60;;;7.00;99.90;;;;;;7380587;19;20007;-75
2024/01/29 04:00:13;;;;;;;21.92;10.13;;;6.90;99.90;;;;;;7380402;19;20010;-74
2024/01/29 04:02:42;;;;;;;21.67;10.35;;;6.90;99.90;;;;;;7381001;19;20007;-74
2024/01/29 04:05:12;;;;;;;24.88;12.68;;;6.90;99.90;;;;;;7401600;19;20007;-74
2024/01/29 04:07:40;;;;;;;25.90;11.65;;;6.90;99.90;;;;;;7378614;19;20009;-74
2024/01/29 04:10:10;;;;;;;27.65;14.13;;;7.00;99.90;;;;;;7379059;19;20330;-74
2024/01/29 04:12:38;;;;;;;30.42;14.35;;;6.90;99.90;;;;;;7379802;19;20015;-75
2024/01/29 04:15:08;;;;;;;33.08;14.32;;;6.90;99.90;;;;;;7380446;19;20075;-74
2024/01/29 04:17:39;;;;;;;28.88;13.40;;;6.90;99.90;;;;;;7380037;19;20043;-74
2024/01/29 04:20:09;;;;;;;26.20;14.30;;;6.90;99.90;;;;;;7401381;19;20059;-75
2024/01/29 04:22:38;;;;;;;27.80;12.80;;;6.90;99.90;;;;;;7380038;19;20071;-75
2024/01/29 04:25:09;;;;;;;29.45;12.75;;;6.90;99.90;;;;;;7379578;19;20007;-75
2024/01/29 04:27:37;;;;;;;30.42;12.75;;;6.90;99.90;;;;;;7378226;19;20010;-75
2024/01/29 04:30:07;;;;;;;23.70;11.65;;;7.00;99.90;;;;;;7379608;19;20465;-74
2024/01/29 04:32:38;;;;;;;24.20;12.27;;;6.90;99.90;;;;;;7379899;19;20027;-74
2024/01/29 04:35:07;;;;;;;23.02;12.23;;;6.90;99.90;;;;;;7401227;19;20014;-74
2024/01/29 04:37:36;;;;;;;28.30;14.38;;;7.00;99.90;;;;;;7378779;19;20256;-76
2024/01/29 04:40:05;;;;;;;29.15;13.88;;;7.00;99.90;;;;;;7378879;19;20011;-75
2024/01/29 04:42:34;;;;;;;34.85;16.13;;;6.90;99.90;;;;;;7379998;19;20003;-74
2024/01/29 04:45:03;;;;;;;30.45;14.68;;;7.00;99.90;;;;;;7379233;19;20293;-75
2024/01/29 04:47:31;;;;;;;31.92;14.68;;;7.00;99.90;;;;;;7377856;19;20011;-74
2024/01/29 04:50:03;;;;;;;40.25;17.05;;;7.00;99.90;;;;;;7400568;19;20015;-75
2024/01/29 04:52:32;;;;;;;37.63;16.88;;;6.90;99.90;;;;;;7378246;19;20085;-76
2024/01/29 04:55:01;;;;;;;40.42;18.42;;;6.90;99.90;;;;;;7378551;19;20009;-75
2024/01/29 04:57:30;;;;;;;34.20;16.73;;;6.90;99.90;;;;;;7377534;19;20018;-75
2024/01/29 04:59:59;;;;;;;32.13;15.93;;;6.90;99.90;;;;;;7378385;19;20390;-75
2024/01/29 05:02:27;;;;;;;45.20;17.35;;;6.90;99.90;;;;;;7378456;19;20070;-74
2024/01/29 05:04:56;;;;;;;32.72;15.32;;;6.90;99.90;;;;;;7399453;19;20249;-75
2024/01/29 05:07:27;;;;;;;29.10;15.60;;;6.90;99.90;;;;;;7377233;19;20119;-74
2024/01/29 05:09:57;;;;;;;27.30;15.43;;;6.90;99.90;;;;;;7378227;19;20093;-74
2024/01/29 05:12:26;;;;;;;33.45;14.52;;;6.90;99.90;;;;;;7376338;19;20002;-75
2024/01/29 05:14:55;;;;;;;35.42;15.40;;;6.90;99.90;;;;;;7378373;19;20411;-75
2024/01/29 05:17:26;;;;;;;34.45;15.25;;;7.00;99.90;;;;;;7378197;19;20023;-75
2024/01/29 05:19:54;;;;;;;33.35;15.00;;;7.00;99.90;;;;;;7399925;19;20007;-75
2024/01/29 05:22:23;;;;;;;35.60;14.27;;;7.00;99.90;;;;;;7378176;19;20007;-75
2024/01/29 05:24:54;;;;;;;37.22;16.60;;;7.00;99.90;;;;;;7377721;19;20011;-74
2024/01/29 05:27:23;;;;;;;37.50;15.75;;;7.00;99.90;;;;;;7382008;19;20013;-74
2024/01/29 05:29:52;;;;;;;28.60;14.52;;;7.00;99.90;;;;;;7377937;19;20007;-74
2024/01/29 05:32:23;;;;;;;33.30;14.80;;;7.00;99.90;;;;;;7378832;19;20067;-74
2024/01/29 05:34:52;;;;;;;34.67;16.42;;;7.00;99.90;;;;;;7397431;19;20014;-74
2024/01/29 05:37:22;;;;;;;37.63;16.30;;;7.00;99.90;;;;;;7377119;19;20003;-74
2024/01/29 05:39:54;;;;;;;27.35;14.98;;;7.00;99.90;;;;;;7376660;19;20086;-74
2024/01/29 05:42:25;;;;;;;38.47;16.42;;;7.00;99.90;;;;;;7377269;19;20015;-75
2024/01/29 05:44:53;;;;;;;31.48;16.25;;;7.00;99.90;;;;;;7377763;19;20013;-74
2024/01/29 05:47:22;;;;;;;32.13;15.55;;;7.10;99.90;;;;;;7380713;19;20011;-75
2024/01/29 05:49:51;;;;;;;31.65;14.98;;;7.10;99.90;;;;;;7403493;19;20007;-75
2024/01/29 05:52:20;;;;;;;26.85;15.00;;;7.00;99.90;;;;;;7378953;19;20283;-75
2024/01/29 05:54:49;;;;;;;29.73;14.93;;;7.10;99.90;;;;;;7381727;19;20033;-75
2024/01/29 05:57:20;;;;;;;33.53;14.88;;;7.10;99.90;;;;;;7381343;19;20024;-74
2024/01/29 05:59:48;;;;;;;;;;;7.00;99.90;;;;;;7383228;19;20258;-75
2024/01/29 06:02:17;;;;;;;29.20;14.13;;;7.10;99.90;;;;;;7400165;19;19911;-74
2024/01/29 06:04:46;;;;;;;26.67;14.13;;;7.10;99.90;;;;;;7376779;19;20010;-75
2024/01/29 06:07:15;;;;;;;29.88;14.98;;;7.10;99.90;;;;;;7376575;19;20389;-74
2024/01/29 06:09:43;;;;;;;32.28;15.70;;;7.10;99.90;;;;;;7377525;19;20011;-76
2024/01/29 06:12:12;;;;;;;33.05;15.45;;;7.10;99.90;;;;;;7376871;19;20009;-75
2024/01/29 06:14:45;;;;;;;31.73;15.80;;;7.10;99.90;;;;;;7377467;19;20018;-75
2024/01/29 06:17:14;;;;;;;30.77;14.52;;;7.10;99.90;;;;;;7397725;19;20354;-74
2024/01/29 06:19:44;;;;;;;28.20;15.93;;;7.10;99.90;;;;;;7378824;19;20015;-74
2024/01/29 06:22:12;;;;;;;26.83;14.18;;;7.10;99.90;;;;;;7375758;19;20075;-74
2024/01/29 06:24:41;;;;;;;46.83;16.08;;;7.10;99.90;;;;;;7376946;19;20244;-75
2024/01/29 06:27:10;;;;;;;34.35;15.30;;;7.10;99.90;;;;;;7383626;19;19999;-75
2024/01/29 06:29:38;;;;;;;29.13;14.30;;;7.10;99.90;;;;;;7383495;19;20007;-75
2024/01/29 06:32:10;;;;;;;32.55;14.68;;;7.10;99.90;;;;;;7403177;19;20011;-74
2024/01/29 06:34:38;;;;;;;;;;;7.10;99.90;;;;;;7383271;19;20070;-76
2024/01/29 06:37:07;;;;;;;27.23;13.63;;;7.10;99.90;;;;;;7383121;19;19911;-76
2024/01/29 06:39:36;;;;;;;35.50;14.15;;;7.00;99.90;;;;;;7383928;19;20020;-75
2024/01/29 06:42:06;;;;;;;26.60;13.48;;;7.00;99.90;;;;;;7382956;19;20240;-75
2024/01/29 06:44:35;;;;;;;27.83;13.18;;;7.00;99.90;;;;;;7383828;19;20006;-75
2024/01/29 06:47:03;;;;;;;25.83;13.60;;;7.00;99.90;;;;;;7403923;19;20022;-74
2024/01/29 06:49:35;;;;;;;26.48;13.23;;;7.00;99.90;;;;;;7382235;19;20021;-74
2024/01/29 06:52:04;;;;;;;28.42;14.52;;;6.90;99.90;;;;;;7381081;19;20054;-74
2024/01/29 06:54:35;;;;;;;33.35;14.00;;;7.00;99.90;;;;;;7382461;19;20070;-75
2024/01/29 06:57:03;;;;;;;23.63;13.23;;;6.90;99.90;;;;;;7382528;19;20011;-74
2024/01/29 06:59:32;;;;;;;27.88;14.25;;;6.90;99.90;;;;;;7381637;19;20042;-74
2024/01/29 07:02:01;;;;;;;32.30;14.05;;;6.90;99.90;;;;;;7404523;19;20010;-74
2024/01/29 07:04:34;;;;;;;25.35;12.57;;;6.90;99.90;;;;;;7382086;19;20006;-75
2024/01/29 07:07:04;;;;;;;25.40;13.90;;;6.90;99.90;;;;;;7382179;19;20002;-75
2024/01/29 07:09:33;;;;;;;32.45;14.50;;;6.90;99.90;;;;;;7383013;19;20010;-74
2024/01/29 07:12:02;;;;;;;28.95;13.65;;;6.90;99.90;;;;;;7382032;19;20006;-75
2024/01/29 07:14:30;;;;;;;32.10;14.93;;;6.90;99.90;;;;;;7382459;19;20066;-74
2024/01/29 07:17:01;;;;;;;30.15;14.48;;;6.90;99.90;;;;;;7401667;19;20051;-75
2024/01/29 07:19:33;;;;;;;25.92;13.35;;;6.90;99.90;;;;;;7381871;19;20006;-74
2024/01/29 07:22:08;;;;;;;25.48;12.95;;;6.90;99.90;;;;;;7382204;19;20011;-74
2024/01/29 07:24:39;;;;;;;26.98;14.43;;;6.90;99.90;;;;;;7382084;19;20017;-74
2024/01/29 07:27:09;;;;;;;33.00;13.27;;;6.90;99.90;;;;;;7381849;19;20006;-76
2024/01/29 07:29:38;;;;;;;26.45;13.77;;;6.90;99.90;;;;;;7381616;19;20027;-76
2024/01/29 07:32:08;;;;;;;32.67;14.23;;;7.00;99.90;;;;;;7402190;19;20075;-75
2024/01/29 07:34:37;;;;;;;31.42;13.90;;;6.90;99.90;;;;;;7381327;19;20006;-75
2024/01/29 07:37:08;;;;;;;28.67;13.38;;;6.90;99.90;;;;;;7380573;19;20058;-75
2024/01/29 07:39:37;;;;;;;;;;;6.90;99.90;;;;;;7382613;19;20018;-75
2024/01/29 07:42:06;;;;;;;23.85;12.63;;;7.00;99.90;;;;;;7382076;19;19918;-76
2024/01/29 07:44:35;;;;;;;27.85;13.40;;;6.90;99.90;;;;;;7381313;19;20035;-74
2024/01/29 07:47:03;;;;;;;31.00;13.95;;;6.90;99.90;;;;;;7402405;19;20014;-75
2024/01/29 07:49:32;;;;;;;23.75;13.93;;;7.00;99.90;;;;;;7380882;19;20020;-75
2024/01/29 07:52:01;;;;;;;28.05;13.15;;;7.00;99.90;;;;;;7380291;19;20012;-74
2024/01/29 07:54:32;;;;;;;29.38;13.95;;;7.00;99.90;;;;;;7381076;19;20023;-75
2024/01/29 07:57:03;;;;;;;33.95;13.27;;;7.00;99.90;;;;;;7382276;19;20019;-74
2024/01/29 07:59:32;;;;;;;31.17;15.77;;;7.10;99.90;;;;;;7408257;19;20074;-80
2024/01/29 08:02:00;;;;;;;45.47;18.73;;;7.10;99.90;;;;;;7384965;19;20002;-73
2024/01/29 08:04:29;;;;;;;36.80;17.50;;;7.10;99.90;;;;;;7381979;19;20409;-73
2024/01/29 08:06:58;;;;;;;36.70;15.73;;;7.20;99.90;;;;;;7382254;19;20007;-72
2024/01/29 08:09:28;;;;;;;226.68;26.50;;;7.20;99.90;;;;;;7383130;19;20398;-71
2024/01/29 08:12:00;;;;;;;30.55;16.30;;;7.20;99.90;;;;;;7381635;19;20009;-73
2024/01/29 08:14:28;;;;;;;;;;;7.20;99.90;;;;;;7404421;19;20006;-74
2024/01/29 08:16:59;;;;;;;38.13;14.07;;;7.30;99.90;;;;;;7381800;19;19907;-74
2024/01/29 08:19:29;;;;;;;37.80;14.85;;;7.30;99.90;;;;;;7381610;19;20015;-73
2024/01/29 08:21:57;;;;;;;30.08;15.45;;;7.30;99.90;;;;;;7381812;19;20340;-74
2024/01/29 08:24:27;;;;;;;33.90;14.48;;;7.30;99.90;;;;;;7381854;19;20165;-73
2024/01/29 08:26:55;;;;;;;33.42;15.45;;;7.30;99.90;;;;;;7381010;19;20011;-73
2024/01/29 08:29:27;;;;;;;35.92;15.10;;;7.40;99.90;;;;;;7404691;19;20010;-74
2024/01/29 08:31:55;;;;;;;;;;;7.40;99.90;;;;;;7380679;19;20398;-72
2024/01/29 08:34:25;;;;;;;30.70;13.75;;;7.50;99.90;;;;;;7380413;19;20282;-73
2024/01/29 08:36:54;;;;;;;33.83;15.10;;;7.50;99.90;;;;;;7381985;19;20010;-73
2024/01/29 08:39:22;;;;;;;35.10;15.45;;;7.60;99.90;;;;;;7382140;19;20095;-73
2024/01/29 08:41:52;;;;;;;32.08;15.63;;;7.70;99.90;;;;;;7388332;19;20010;-74
2024/01/29 08:44:23;;;;;;;33.63;15.90;;;7.70;99.90;;;;;;7407942;19;20011;-73
2024/01/29 08:46:54;;;;;;;;;;;7.80;99.90;;;;;;7387980;19;20047;-74
2024/01/29 08:49:23;;;;;;;;;;;7.90;99.90;;;;;;7388541;19;19932;-74
2024/01/29 08:51:51;;;;;;;;;;;7.90;99.90;;;;;;7387367;19;20275;-74
2024/01/29 08:54:20;;;;;;;;;;;8.00;99.90;;;;;;7385298;19;19915;-71
2024/01/29 08:56:50;;;;;;;;;;;8.10;99.90;;;;;;7382635;19;19921;-72
2024/01/29 08:59:19;;;;;;;;;;;8.20;99.90;;;;;;7402803;19;19906;-72
2024/01/29 09:01:47;;;;;;;;;;;8.20;99.90;;;;;;7380587;19;20201;-74
2024/01/29 09:04:19;;;;;;;;;;;8.30;99.90;;;;;;7382576;19;19922;-74
2024/01/29 09:06:47;;;;;;;;;;;8.40;99.90;;;;;;7381156;19;20153;-73
2024/01/29 09:09:15;;;;;;;;;;;8.50;99.90;;;;;;7379499;19;20148;-74
2024/01/29 09:11:44;;;;;;;;;;;8.50;99.90;;;;;;7402264;19;19911;-73
2024/01/29 09:14:12;;;;;;;;;;;8.60;99.90;;;;;;7380074;19;19914;-73
2024/01/29 09:16:41;;;;;;;;;;;8.70;99.90;;;;;;7380292;19;19967;-74
2024/01/29 09:19:09;;;;;;;;;;;8.70;99.90;;;;;;7380919;19;19907;-74
2024/01/29 09:21:42;;;;;;;;;;;8.80;99.90;;;;;;7380829;19;20219;-74
2024/01/29 09:24:10;;;;;;;;;;;8.90;99.90;;;;;;7380703;19;19919;-74
2024/01/29 09:26:38;;;;;;;;;;;8.90;99.90;;;;;;7402620;19;20230;-74
2024/01/29 09:29:07;;;;;;;;;;;8.90;99.90;;;;;;7379813;19;19959;-73
2024/01/29 09:31:36;;;;;;;;;;;9.00;99.90;;;;;;7380059;19;20274;-73
2024/01/29 09:34:05;;;;;;;;;;;9.00;99.90;;;;;;7379925;19;19990;-73
2024/01/29 09:36:33;;;;;;;;;;;9.00;99.90;;;;;;7380754;19;19907;-73
2024/01/29 09:39:06;;;;;;;;;;;9.10;99.90;;;;;;7381037;19;19918;-73
2024/01/29 09:41:36;;;;;;;;;;;9.10;99.90;;;;;;7402174;19;20246;-73
2024/01/29 09:44:09;;;;;;;;;;;9.20;99.90;;;;;;7379550;19;19910;-74
2024/01/29 09:46:39;;;;;;;;;;;9.20;99.90;;;;;;7380384;19;19967;-75
2024/01/29 09:49:07;;;;;;;;;;;9.20;99.90;;;;;;7380927;19;19915;-74
2024/01/29 09:51:36;;;;;;;;;;;9.30;99.90;;;;;;7380746;19;19962;-74
2024/01/29 09:54:08;;;;;;;;;;;9.30;99.90;;;;;;7377310;19;19990;-73
2024/01/29 09:56:37;;;;;;;;;;;9.30;99.90;;;;;;7402014;19;19931;-76
2024/01/29 09:59:05;;;;;;;;;;;9.30;99.90;;;;;;7382715;19;19907;-74
2024/01/29 10:01:34;;;;;;;;;;;9.30;99.90;;;;;;7387210;19;19910;-73
2024/01/29 10:04:04;;;;;;;;;;;9.30;99.90;;;;;;7386751;19;20288;-73
2024/01/29 10:06:32;;;;;;;;;;;9.40;99.90;;;;;;7387011;19;19913;-74
2024/01/29 10:09:01;;;;;;;;;;;9.40;99.90;;;;;;7384669;19;19924;-75
2024/01/29 10:11:32;;;;;;;;;;;9.50;99.90;;;;;;7408470;19;19915;-74
2024/01/29 10:14:01;;;;;;;;;;;9.50;99.90;;;;;;7383584;19;19962;-74
2024/01/29 10:16:31;;;;;;;;;;;9.50;99.90;;;;;;7387075;19;19921;-75
2024/01/29 10:19:00;;;;;;;;;;;9.60;99.90;;;;;;7386680;19;19967;-74
2024/01/29 10:21:32;;;;;;;;;;;9.60;99.90;;;;;;7385703;19;19903;-75
2024/01/29 10:24:01;;;;;;;;;;;9.70;99.90;;;;;;7386813;19;19917;-73
2024/01/29 10:26:32;;;;;;;;;;;9.80;99.90;;;;;;7406763;19;19915;-74
2024/01/29 10:29:03;;;;;;;;;;;9.80;99.90;;;;;;7385654;19;19966;-73
2024/01/29 10:31:32;;;;;;;;;;;9.90;99.90;;;;;;7386420;19;19915;-73
2024/01/29 10:34:00;;;;;;;;;;;9.90;99.90;;;;;;7384962;19;19935;-72
2024/01/29 10:36:29;;;;;;;;;;;10.00;99.90;;;;;;7385861;19;19907;-72
2024/01/29 10:39:00;;;;;;;;;;;10.00;99.90;;;;;;7385575;19;20156;-74
2024/01/29 10:41:28;;;;;;;;;;;10.10;99.90;;;;;;7403874;19;19914;-73
2024/01/29 10:44:00;;;;;;;;;;;10.10;99.90;;;;;;7385180;19;19962;-75
2024/01/29 10:46:29;;;;;;;;;;;10.20;99.90;;;;;;7385945;19;19907;-74
2024/01/29 10:49:00;;;;;;;;;;;10.20;99.90;;;;;;7385892;19;20263;-74
2024/01/29 10:51:29;;;;;;;;;;;10.20;99.90;;;;;;7385859;19;19919;-73
2024/01/29 10:53:57;;;;;;;;;;;10.30;99.90;;;;;;7383633;19;19975;-74
2024/01/29 10:56:26;;;;;;;;;;;10.30;99.90;;;;;;7407771;19;19987;-74
2024/01/29 10:58:58;;;;;;;;;;;10.30;99.90;;;;;;7385063;19;19923;-75
2024/01/29 11:01:29;;;;;;;;;;;10.40;99.90;;;;;;7384887;19;20201;-74
2024/01/29 11:03:59;;;;;;;;;;;10.50;99.90;;;;;;7384993;19;19914;-75
2024/01/29 11:06:29;;;;;;;;;;;10.40;99.90;;;;;;7385163;19;19928;-73
2024/01/29 11:09:00;;;;;;;;;;;10.50;99.90;;;;;;7382138;19;19979;-75
2024/01/29 11:11:30;;;;;;;;;;;10.30;99.90;;;;;;7404436;19;19923;-74
2024/01/29 11:13:58;;;;;;;;;;;10.30;99.90;;;;;;7382416;19;19921;-74
2024/01/29 11:16:30;;;;;;;;;;;10.40;99.90;;;;;;7384562;19;19911;-76
2024/01/29 11:18:58;;;;;;;;;;;10.60;99.90;;;;;;7384503;19;19924;-75
2024/01/29 11:21:27;;;;;;;;;;;10.60;99.90;;;;;;7384396;19;19907;-75
2024/01/29 11:23:57;;;;;;;;;;;10.80;99.90;;;;;;7405933;19;19919;-73
2024/01/29 11:26:28;;;;;;;;;;;10.90;99.90;;;;;;7383800;19;19907;-74
2024/01/29 11:28:57;;;;;;;;;;;11.00;99.90;;;;;;7383892;19;19907;-74
2024/01/29 11:31:25;;;;;;;;;;;11.10;99.90;;;;;;7383848;19;20263;-75
2024/01/29 11:34:06;;;;;;;;;;;11.20;99.90;;;;;;7384497;19;20109;-75
2024/01/29 11:36:36;;;;;;;;;;;11.20;99.90;;;;;;7387562;19;19915;-73
2024/01/29 11:39:06;;;;;;;;;;;11.30;99.90;;;;;;7383298;19;20187;-73
2024/01/29 11:41:35;;;;;;;;;;;11.40;99.90;;;;;;7405079;19;20116;-74
2024/01/29 11:44:04;;;;;;;;;;;11.30;99.90;;;;;;7383977;19;20348;-74
2024/01/29 11:46:32;;;;;;;;;;;11.40;99.90;;;;;;7385300;19;19915;-75
2024/01/29 11:49:03;;;;;;;;;;;11.50;99.90;;;;;;7387191;19;19978;-75
2024/01/29 11:51:32;;;;;;;;;;;11.50;99.90;;;;;;7387354;19;20190;-74
2024/01/29 11:54:00;;;;;;;;;;;11.40;99.90;;;;;;7384072;19;19911;-74
2024/01/29 11:56:28;;;;;;;;;;;11.10;99.90;;;;;;7407200;19;19928;-74
2024/01/29 11:59:01;;;;;;;;;;;11.00;99.90;;;;;;7387197;19;20007;-74
2024/01/29 12:01:31;;;;;;;;;;;11.10;99.90;;;;;;7386455;19;20179;-75
2024/01/29 12:04:00;;;;;;;;;;;11.20;99.90;;;;;;7384225;19;19922;-75
2024/01/29 12:06:34;;;;;;;;;;;11.40;99.90;;;;;;7383086;19;20238;-75
2024/01/29 12:09:03;;;;;;;;;;;11.40;99.90;;;;;;7381318;19;19915;-74
2024/01/29 12:11:32;;;;;;;;;;;11.30;99.90;;;;;;7404659;19;19911;-77
2024/01/29 12:14:00;;;;;;;;;;;11.40;99.90;;;;;;7381126;19;19914;-74
2024/01/29 12:16:29;;;;;;;;;;;11.60;99.90;;;;;;7382896;19;19970;-73
2024/01/29 12:18:59;;;;;;;;;;;11.70;99.90;;;;;;7383109;19;20250;-74
2024/01/29 12:21:28;;;;;;;;;;;11.80;99.90;;;;;;7384105;19;19927;-74
2024/01/29 12:23:59;;;;;;;;;;;11.70;99.90;;;;;;7404031;19;19924;-74
2024/01/29 12:26:27;;;;;;;;;;;11.80;99.90;;;;;;7382347;19;19903;-74
2024/01/29 12:28:56;;;;;;;;;;;11.70;99.90;;;;;;7381461;19;19911;-74
2024/01/29 12:31:25;;;;;;;;;;;11.80;99.90;;;;;;7381884;19;19910;-74
2024/01/29 12:33:54;;;;;;;;;;;12.00;99.90;;;;;;7382170;19;19920;-73
2024/01/29 12:36:22;;;;;;;;;;;12.10;99.90;;;;;;7382223;19;20263;-74
2024/01/29 12:38:57;;;;;;;;;;;12.20;99.90;;;;;;7402920;19;20244;-74
2024/01/29 12:41:34;;;;;;;;;;;12.20;99.90;;;;;;7381335;19;19911;-74
2024/01/29 12:44:10;;;;;;;;;;;12.30;99.90;;;;;;7381926;19;19924;-75
2024/01/29 12:46:41;;;;;;;;;;;12.40;99.90;;;;;;7381916;19;19906;-74
2024/01/29 12:49:11;;;;;;;;;;;12.50;99.90;;;;;;7383470;19;19913;-75
2024/01/29 12:51:39;;;;;;;;;;;12.60;99.90;;;;;;7382874;19;19911;-74
2024/01/29 12:54:08;;;;;;;;;;;12.60;99.90;;;;;;7380466;19;19911;-74
2024/01/29 12:56:39;;;;;;;;;;;12.50;99.90;;;;;;7402967;19;19907;-77
2024/01/29 12:59:09;;;;;;;;;;;12.50;99.90;;;;;;7385775;19;19910;-77
2024/01/29 13:01:43;;;;;;;;;;;12.60;99.90;;;;;;7386592;19;19911;-77
2024/01/29 13:04:11;;;;;;;;;;;12.40;99.90;;;;;;7384730;19;19928;-77
2024/01/29 13:06:39;;;;;;;;;;;12.50;99.90;;;;;;7383559;19;19915;-78
2024/01/29 13:09:08;;;;;;;;;;;12.60;99.90;;;;;;7380737;19;20015;-77
2024/01/29 13:11:43;;;;;;;;;;;12.60;99.90;;;;;;7403305;19;20123;-77
2024/01/29 13:14:12;;;;;;;;;;;12.60;99.90;;;;;;7381139;19;19915;-77
2024/01/29 13:16:41;;;;;;;;;;;12.80;99.90;;;;;;7380694;19;19958;-77
2024/01/29 13:19:10;;;;;;;;;;;12.70;99.90;;;;;;7383759;19;19911;-78
2024/01/29 13:21:41;;;;;;;;;;;12.80;99.90;;;;;;7382727;19;20138;-78
2024/01/29 13:24:10;;;;;;;;;;;12.60;99.90;;;;;;7381809;19;19911;-77